createdAt,value
2023-01-09T05:32:39.213Z,6.22
2023-01-09T05:35:07.469Z,6.46
2023-01-09T05:37:34.932Z,6.73
2023-01-09T05:40:02.347Z,6.92
2023-01-09T05:42:29.735Z,7.06
2023-01-09T05:44:57.153Z,7.15
2023-01-09T05:47:24.583Z,7.21
2023-01-09T05:49:52.106Z,7.26
2023-01-09T05:52:19.518Z,7.28
2023-01-09T05:54:47.006Z,7.32
2023-01-09T05:57:14.490Z,7.34
2023-01-09T05:59:41.978Z,7.37
2023-01-09T06:02:09.474Z,7.39
2023-01-09T06:04:37.390Z,7.46
2023-01-09T06:07:04.990Z,7.49
2023-01-09T06:09:32.407Z,7.55
2023-01-09T06:11:59.767Z,7.58
2023-01-09T06:14:27.150Z,7.63
2023-01-09T06:16:54.608Z,7.69
2023-01-09T06:19:22.082Z,7.75
2023-01-09T06:21:49.465Z,7.84
2023-01-09T06:24:17.082Z,7.91
2023-01-09T06:26:44.527Z,7.99
2023-01-09T06:29:11.934Z,8.05
2023-01-09T06:31:39.300Z,8.05
2023-01-09T06:34:06.770Z,8.08
2023-01-09T06:36:34.889Z,8.07
2023-01-09T06:39:02.292Z,8.08
2023-01-09T06:41:29.774Z,8.13
2023-01-09T06:43:57.213Z,8.16
2023-01-09T06:46:24.712Z,8.13
2023-01-09T06:48:52.131Z,8.21
2023-01-09T06:51:19.594Z,8.19
2023-01-09T06:53:47.034Z,8.24
2023-01-09T06:56:14.420Z,8.22
2023-01-09T06:58:41.822Z,8.21
2023-01-09T07:01:09.426Z,8.13
2023-01-09T07:03:37.013Z,8.10
2023-01-09T07:06:05.229Z,8.12
2023-01-09T07:08:34.240Z,8.08
2023-01-09T07:11:01.787Z,8.10
2023-01-09T07:13:29.171Z,8.11
2023-01-09T07:15:56.729Z,8.09
2023-01-09T07:18:24.260Z,8.07
2023-01-09T07:20:51.631Z,8.09
2023-01-09T07:23:19.088Z,8.14
2023-01-09T07:25:46.781Z,8.15
2023-01-09T07:28:14.346Z,8.22
2023-01-09T07:30:41.791Z,8.23
2023-01-09T07:33:09.289Z,8.27
2023-01-09T07:35:36.993Z,8.32
2023-01-09T07:38:04.514Z,8.34
2023-01-09T07:40:31.923Z,8.41
2023-01-09T07:42:59.546Z,8.45
2023-01-09T07:45:26.954Z,8.50
2023-01-09T07:47:54.405Z,8.61
2023-01-09T07:50:21.868Z,8.61
2023-01-09T07:52:49.274Z,8.65
2023-01-09T07:55:17.693Z,8.65
2023-01-09T07:57:52.192Z,8.60
2023-01-09T08:00:21.171Z,8.61
2023-01-09T08:02:53.760Z,8.60
2023-01-09T08:05:22.010Z,8.68
2023-01-09T08:07:51.405Z,8.71
2023-01-09T08:10:19.933Z,8.74
2023-01-09T08:12:48.980Z,8.78
2023-01-09T08:15:17.746Z,8.81
2023-01-09T08:17:46.272Z,8.79
2023-01-09T08:20:16.428Z,8.81
2023-01-09T08:22:50.581Z,8.79
2023-01-09T08:25:18.721Z,8.81
2023-01-09T08:27:47.060Z,8.81
2023-01-09T15:47:34.778Z,10.77
2023-01-09T15:50:04.966Z,10.96
2023-01-09T15:52:32.483Z,11.19
2023-01-09T15:54:59.930Z,11.38
2023-01-09T15:57:27.303Z,11.52
2023-01-09T16:00:16.141Z,11.64
2023-01-09T16:03:04.576Z,11.77
2023-01-09T16:05:33.334Z,11.82
2023-01-09T16:08:02.156Z,11.88
2023-01-09T16:10:39.011Z,11.92
2023-01-09T16:13:06.472Z,11.95
2023-01-09T16:15:35.195Z,11.97
2023-01-09T16:18:17.261Z,11.98
2023-01-09T16:20:45.599Z,11.97
2023-01-09T16:23:35.463Z,11.96
2023-01-09T16:26:19.735Z,11.97
2023-01-09T16:28:47.251Z,11.98
2023-01-09T16:31:29.128Z,12.00
2023-01-09T16:34:06.438Z,12.03
2023-01-09T16:36:35.298Z,12.03
2023-01-09T16:39:06.672Z,12.04
2023-01-09T16:41:52.769Z,11.98
2023-01-09T16:44:20.172Z,11.97
2023-01-09T16:46:47.819Z,11.98
2023-01-09T16:49:23.323Z,12.00
2023-01-09T16:51:51.864Z,11.98
2023-01-09T16:54:20.063Z,11.98
2023-01-09T16:56:50.790Z,11.96
2023-01-09T16:59:24.655Z,11.93
2023-01-09T17:01:54.040Z,11.90
2023-01-09T17:04:23.729Z,11.90
2023-01-09T17:06:51.794Z,11.92
2023-01-09T17:09:23.122Z,11.90
2023-01-09T17:11:51.553Z,11.90
2023-01-09T17:14:18.977Z,11.92
2023-01-09T17:16:46.887Z,11.88
2023-01-09T17:19:19.009Z,11.86
2023-01-09T17:21:47.196Z,11.85
2023-01-09T17:24:33.818Z,11.86
2023-01-09T17:27:21.512Z,11.88
2023-01-09T17:29:49.023Z,11.84
2023-01-09T17:32:18.481Z,11.86
2023-01-09T17:34:46.037Z,11.78
2023-01-09T17:37:19.015Z,11.89
2023-01-09T17:39:46.875Z,11.92
2023-01-09T17:42:14.426Z,11.93
2023-01-09T17:44:41.821Z,11.93
2023-01-09T17:47:15.737Z,11.95
2023-01-09T17:49:43.645Z,11.97
2023-01-09T17:52:11.171Z,11.99
2023-01-09T17:54:40.362Z,11.97
2023-01-09T17:57:14.883Z,11.99
2023-01-09T17:59:42.438Z,12.03
2023-01-09T18:02:19.670Z,12.03
2023-01-09T18:04:47.178Z,12.04
2023-01-09T18:07:16.882Z,12.05
2023-01-09T18:09:45.315Z,12.12
